createdAt,value
2019-04-10T00:03:24.930Z,11.97
2019-04-10T00:07:09.292Z,11.85
2019-04-10T00:10:41.997Z,11.83
2019-04-10T00:14:12.345Z,11.88
2019-04-10T00:17:42.902Z,11.92
2019-04-10T00:21:13.997Z,11.91
2019-04-10T00:24:44.275Z,11.9
2019-04-10T00:28:14.963Z,11.92
2019-04-10T00:31:45.270Z,12.05
2019-04-10T00:35:15.342Z,11.99
2019-04-10T00:38:46.198Z,12.04
2019-04-10T00:42:16.852Z,12.07
2019-04-10T00:45:46.974Z,12.02
2019-04-10T00:49:17.994Z,12.05
2019-04-10T00:52:48.283Z,12.01
2019-04-10T00:56:18.645Z,11.94
2019-04-10T00:59:48.917Z,11.87
2019-04-10T01:00:17.266Z,11.88
2019-04-10T01:03:48.959Z,11.94
2019-04-10T01:07:32.891Z,12.01
2019-04-10T01:11:08.548Z,12.06
2019-04-10T01:14:38.701Z,12.04
2019-04-10T01:18:08.823Z,12
2019-04-10T01:21:38.962Z,12.02
2019-04-10T01:25:10.268Z,12.07
2019-04-10T01:28:40.824Z,12.11
2019-04-10T01:32:11.904Z,11.88
2019-04-10T01:35:42.584Z,11.53
2019-04-10T01:39:20.072Z,11.3
2019-04-10T01:43:02.405Z,11.23
2019-04-10T01:46:38.249Z,11.22
2019-04-10T01:50:10.387Z,11.04
2019-04-10T01:53:40.457Z,10.89
2019-04-10T01:57:10.616Z,10.87
2019-04-10T02:00:43.815Z,10.9
2019-04-10T02:04:14.279Z,10.99
2019-04-10T02:07:44.512Z,11.14
2019-04-10T02:11:15.423Z,11.25
2019-04-10T02:14:46.761Z,11.32
2019-04-10T02:18:17.256Z,11.36
2019-04-10T02:21:47.708Z,11.4
2019-04-10T02:25:18.011Z,11.44
2019-04-10T02:28:48.091Z,11.41
2019-04-10T02:32:18.993Z,11.45
2019-04-10T02:35:49.463Z,11.45
2019-04-10T02:39:26.610Z,11.38
2019-04-10T02:43:03.260Z,11.27
2019-04-10T02:46:33.572Z,11.19
2019-04-10T02:50:06.208Z,10.94
2019-04-10T02:53:39.288Z,10.78
2019-04-10T02:57:09.674Z,10.71
2019-04-10T03:00:15.877Z,10.62
2019-04-10T03:03:46.511Z,10.61
2019-04-10T03:07:17.711Z,10.45
2019-04-10T03:10:53.823Z,10.37
2019-04-10T03:14:28.274Z,10.27
2019-04-10T03:17:58.725Z,10.26
2019-04-10T03:21:29.262Z,10.11
2019-04-10T03:25:00.315Z,10.13
2019-04-10T03:28:31.976Z,10.21
2019-04-10T03:32:38.434Z,10.38
2019-04-10T03:36:09.582Z,10.4
2019-04-10T03:39:40.515Z,10.39
2019-04-10T03:43:11.786Z,10.51
2019-04-10T03:46:42.700Z,10.67
2019-04-10T03:50:12.998Z,10.79
2019-04-10T03:53:44.497Z,10.88
2019-04-10T03:57:14.592Z,10.93
2019-04-10T04:00:44.784Z,10.97
2019-04-10T04:04:15.477Z,11.03
2019-04-10T04:07:46.504Z,11.12
2019-04-10T04:11:17.542Z,11.3
2019-04-10T04:14:48.458Z,11.39
2019-04-10T04:18:19.282Z,11.41
2019-04-10T04:21:50.238Z,11.37
2019-04-10T04:25:20.435Z,11.41
2019-04-10T04:28:51.559Z,11.51
2019-04-10T04:32:21.818Z,11.59
2019-04-10T04:35:53.105Z,11.76
2019-04-10T04:39:26.976Z,11.93
2019-04-10T04:42:58.509Z,11.76
2019-04-10T04:46:28.657Z,11.47
2019-04-10T04:49:59.192Z,11.65
2019-04-10T04:53:30.199Z,11.81
2019-04-10T04:57:01.320Z,11.96
2019-04-10T05:00:17.275Z,11.98
2019-04-10T05:03:48.423Z,12.05
2019-04-10T05:07:18.660Z,11.92
2019-04-10T05:10:49.693Z,11.89
2019-04-10T05:14:19.950Z,12.04
2019-04-10T05:17:50.275Z,12.2
2019-04-10T05:21:21.328Z,12.21
2019-04-10T05:24:52.322Z,12.46
2019-04-10T05:28:22.462Z,12.66
2019-04-10T05:31:53.112Z,12.68
2019-04-10T05:35:23.541Z,12.66
2019-04-10T05:38:54.451Z,12.79
2019-04-10T05:42:24.818Z,12.93
2019-04-10T05:45:55.153Z,13.2
2019-04-10T05:49:25.243Z,13.24
2019-04-10T05:52:55.903Z,13.46
2019-04-10T05:56:26.020Z,13.67
2019-04-10T05:59:56.992Z,13.83
2019-04-10T06:03:28.135Z,13.96
2019-04-10T06:06:58.879Z,14.22
2019-04-10T06:10:30.117Z,14.46
2019-04-10T06:14:01.097Z,14.48
2019-04-10T06:17:32.262Z,14.63
2019-04-10T06:21:03.059Z,14.53
2019-04-10T06:24:33.123Z,14.72
2019-04-10T06:28:03.220Z,14.75
2019-04-10T06:31:33.573Z,14.88
2019-04-10T06:35:05.698Z,15.09
2019-04-10T06:38:37.155Z,15.14
2019-04-10T06:42:08.293Z,15.18
2019-04-10T06:45:39.835Z,15.14
2019-04-10T06:49:09.985Z,14.99
2019-04-10T06:52:41.002Z,14.81
2019-04-10T06:56:11.347Z,14.66
2019-04-10T06:59:42.354Z,14.32
2019-04-10T07:00:19.693Z,14.25
2019-04-10T07:03:57.509Z,14.14
2019-04-10T07:07:43.421Z,14
2019-04-10T07:11:23.549Z,13.91
2019-04-10T07:14:58.212Z,13.88
2019-04-10T07:18:28.689Z,13.81
2019-04-10T07:22:01.272Z,13.81
2019-04-10T07:25:32.014Z,13.76
2019-04-10T07:29:02.803Z,13.79
2019-04-10T07:32:33.909Z,13.8
2019-04-10T07:36:07.637Z,13.84
2019-04-10T07:39:39.717Z,13.84
2019-04-10T07:43:09.818Z,13.93
2019-04-10T07:46:40.182Z,14.15
2019-04-10T07:50:12.083Z,14.29
2019-04-10T07:53:42.265Z,14.18
2019-04-10T07:57:12.514Z,14.09
2019-04-10T08:00:44.820Z,14.07
2019-04-10T08:04:14.936Z,14.11
2019-04-10T08:07:48.516Z,14.12
2019-04-10T08:11:40.214Z,14.33
2019-04-10T08:15:31.608Z,14.36
2019-04-10T08:19:02.359Z,13.98
2019-04-10T08:22:32.833Z,13.89
2019-04-10T08:26:03.574Z,14.08
2019-04-10T08:29:34.363Z,14.3
2019-04-10T08:33:05.711Z,14.23
2019-04-10T08:36:36.064Z,14.1
2019-04-10T08:40:07.478Z,14.07
2019-04-10T08:43:37.717Z,14.23
2019-04-10T08:47:08.874Z,14.49
2019-04-10T08:50:38.945Z,14.72
2019-04-10T08:54:09.940Z,14.86
2019-04-10T08:57:40.073Z,14.77
2019-04-10T09:00:16.541Z,14.83
2019-04-10T09:03:46.827Z,14.83
2019-04-10T09:07:16.973Z,15.03
2019-04-10T09:10:47.068Z,15.15
2019-04-10T09:14:17.216Z,15.21
2019-04-10T09:17:47.266Z,15.41
2019-04-10T09:21:17.527Z,15.39
2019-04-10T09:24:48.786Z,15.42
2019-04-10T09:28:19.195Z,15.27
2019-04-10T09:31:50.220Z,15.23
2019-04-10T09:35:20.580Z,14.97
2019-04-10T09:38:50.864Z,14.72
2019-04-10T09:42:21.538Z,14.92
2019-04-10T09:45:51.744Z,15.25
2019-04-10T09:49:33.855Z,15.75
2019-04-10T09:53:09.057Z,16.21
2019-04-10T09:56:39.266Z,16.31
2019-04-10T10:00:10.495Z,16.3
2019-04-10T10:03:42.091Z,16.19
2019-04-10T10:07:14.349Z,16
2019-04-10T10:10:44.991Z,15.99
2019-04-10T10:14:15.153Z,16.31
2019-04-10T10:17:45.304Z,16.56
2019-04-10T10:21:16.507Z,17.18
2019-04-10T10:24:46.960Z,17.43
2019-04-10T10:28:17.086Z,17.83
2019-04-10T10:31:49.725Z,17.93
2019-04-10T10:35:21.248Z,18.18
2019-04-10T10:39:04.389Z,18.25
2019-04-10T10:42:40.193Z,18
2019-04-10T10:46:11.524Z,17.41
2019-04-10T10:49:42.355Z,17.42
2019-04-10T10:53:12.382Z,16.98
2019-04-10T11:12:12.046Z,16.38
2019-04-10T11:15:45.378Z,15.91
2019-04-10T11:19:17.155Z,15.63
2019-04-10T11:22:47.539Z,15.93
2019-04-10T11:26:20.572Z,16.05
2019-04-10T11:29:54.824Z,16.37
2019-04-10T11:33:26.331Z,16.61
2019-04-10T11:37:16.912Z,16.37
2019-04-10T11:40:55.952Z,16.45
2019-04-10T11:44:28.225Z,16.72
2019-04-10T11:47:59.086Z,16.65
2019-04-10T11:51:32.357Z,16.91
2019-04-10T11:55:11.218Z,18.13
2019-04-10T11:58:48.933Z,19.09
2019-04-10T12:02:24.988Z,20.11
2019-04-10T12:05:57.223Z,20.16
2019-04-10T12:13:12.326Z,19.39
2019-04-10T12:16:42.736Z,18.93
2019-04-10T12:20:13.186Z,18.77
2019-04-10T12:23:43.384Z,18.01
2019-04-10T12:27:14.670Z,17.65
2019-04-10T12:30:45.746Z,17.29
2019-04-10T12:34:16.252Z,17.3
2019-04-10T12:37:46.374Z,17.15
2019-04-10T12:41:17.306Z,17.1
2019-04-10T12:44:47.548Z,17.16
2019-04-10T12:48:18.544Z,17.52
2019-04-10T12:51:49.964Z,17.67
2019-04-10T12:55:20.579Z,17.28
2019-04-10T12:58:50.964Z,17.91
2019-04-10T13:00:18.654Z,17.87
2019-04-10T13:03:49.455Z,17.56
2019-04-10T13:07:19.632Z,17.45
2019-04-10T13:10:49.799Z,17.39
2019-04-10T13:14:20.840Z,17.3
2019-04-10T13:17:51.098Z,17.89
2019-04-10T13:21:22.100Z,18.41
2019-04-10T13:24:52.242Z,19.26
2019-04-10T13:28:23.387Z,19.34
2019-04-10T13:31:53.683Z,19.83
2019-04-10T13:35:24.159Z,19.94
2019-04-10T13:38:54.816Z,19.62
2019-04-10T13:42:25.131Z,20.22
2019-04-10T13:45:56.189Z,21.35
2019-04-10T13:49:26.446Z,22.43
2019-04-10T13:52:57.493Z,22.95
2019-04-10T13:56:28.746Z,22.75
2019-04-10T13:59:59.517Z,22.54
2019-04-10T14:03:30.154Z,22.99
2019-04-10T14:07:00.484Z,22.96
2019-04-10T14:10:31.314Z,23.06
2019-04-10T14:14:02.456Z,23.19
2019-04-10T14:17:33.652Z,23.82
2019-04-10T14:21:09.748Z,24.4
2019-04-10T14:24:45.305Z,24.39
2019-04-10T14:28:19.633Z,24.18
2019-04-10T14:31:59.228Z,24.14
2019-04-10T14:35:29.521Z,23.72
2019-04-10T14:39:10.223Z,23.84
2019-04-10T14:42:43.893Z,24.44
2019-04-10T14:46:14.578Z,24.68
2019-04-10T14:49:45.164Z,24.84
2019-04-10T14:53:15.470Z,22.77
2019-04-10T14:56:46.358Z,21.08
2019-04-10T15:00:29.032Z,20.05
2019-04-10T15:04:00.486Z,19.55
2019-04-10T15:07:31.063Z,19.15
2019-04-10T15:11:01.076Z,18.74
2019-04-10T15:14:32.823Z,18.52
2019-04-10T15:18:05.091Z,18.27
2019-04-10T15:21:35.262Z,17.99
2019-04-10T15:25:05.502Z,17.7
2019-04-10T15:28:36.092Z,17.36
2019-04-10T15:32:06.560Z,17.05
2019-04-10T15:35:36.682Z,16.88
2019-04-10T15:39:07.021Z,16.78
2019-04-10T15:42:37.426Z,16.65
2019-04-10T15:46:08.804Z,16.25
2019-04-10T15:49:39.066Z,15.95
2019-04-10T15:53:09.734Z,15.65
2019-04-10T15:56:40.179Z,15.63
2019-04-10T16:00:10.781Z,15.65
2019-04-10T16:03:40.950Z,15.68
2019-04-10T16:07:11.928Z,15.69
2019-04-10T16:10:58.397Z,15.67
2019-04-10T16:14:30.173Z,15.67
2019-04-10T16:18:07.222Z,15.53
2019-04-10T16:21:38.030Z,15.51
2019-04-10T16:25:12.338Z,15.51
2019-04-10T16:28:43.089Z,15.35
2019-04-10T16:32:13.327Z,15.21
2019-04-10T16:35:44.036Z,15.03
2019-04-10T16:39:15.516Z,14.93
2019-04-10T16:42:46.791Z,14.79
2019-04-10T16:46:17.378Z,14.68
2019-04-10T16:49:47.558Z,14.5
2019-04-10T16:53:18.125Z,14.39
2019-04-10T16:56:48.201Z,14.35
2019-04-10T17:00:17.197Z,14.3
2019-04-10T17:03:49.674Z,14.3
2019-04-10T17:07:21.010Z,14.27
2019-04-10T17:10:51.106Z,14.31
2019-04-10T17:14:22.112Z,14.35
2019-04-10T17:17:52.732Z,14.31
2019-04-10T17:21:23.062Z,14.27
2019-04-10T17:24:53.716Z,14.22
2019-04-10T17:28:24.971Z,14.15
2019-04-10T17:31:55.556Z,14.07
2019-04-10T17:35:25.722Z,14.11
2019-04-10T17:38:55.877Z,14.03
2019-04-10T17:42:30.852Z,13.91
2019-04-10T17:46:00.957Z,13.87
2019-04-10T17:49:31.803Z,13.94
2019-04-10T17:53:02.506Z,13.94
2019-04-10T17:56:32.610Z,13.94
2019-04-10T18:00:16.060Z,13.95
2019-04-10T18:03:52.192Z,13.99
2019-04-10T18:07:25.257Z,13.96
2019-04-10T18:10:56.822Z,14
2019-04-10T18:14:27.289Z,14.02
2019-04-10T18:17:57.605Z,14.03
2019-04-10T18:21:28.820Z,14.07
2019-04-10T18:24:59.064Z,14.12
2019-04-10T18:28:31.003Z,14.11
2019-04-10T18:32:02.741Z,14.04
2019-04-10T18:35:33.683Z,14.03
2019-04-10T18:39:06.016Z,14.05
2019-04-10T18:42:37.312Z,13.98
2019-04-10T18:46:13.431Z,13.93
2019-04-10T18:49:46.259Z,13.96
2019-04-10T18:53:17.131Z,13.88
2019-04-10T18:56:47.283Z,13.87
2019-04-10T19:05:14.111Z,13.88
2019-04-10T19:08:44.119Z,13.82
2019-04-10T19:12:14.688Z,13.68
2019-04-10T19:15:44.970Z,13.53
2019-04-10T19:19:16.276Z,13.59
2019-04-10T19:22:46.865Z,13.65
2019-04-10T19:26:21.066Z,13.66
2019-04-10T19:29:51.268Z,13.71
2019-04-10T19:33:21.819Z,13.81
2019-04-10T19:36:52.195Z,13.76
2019-04-10T19:40:23.473Z,13.82
2019-04-10T19:43:54.859Z,13.77
2019-04-10T19:47:26.259Z,13.68
2019-04-10T19:50:57.458Z,13.56
2019-04-10T19:54:28.299Z,13.61
2019-04-10T19:57:58.515Z,13.7
2019-04-10T20:01:30.015Z,13.72
2019-04-10T20:05:01.450Z,13.64
2019-04-10T20:08:31.604Z,13.56
2019-04-10T20:12:02.446Z,13.62
2019-04-10T20:15:32.838Z,13.66
2019-04-10T20:19:03.418Z,13.68
2019-04-10T20:22:33.491Z,13.68
2019-04-10T20:26:05.116Z,13.69
2019-04-10T20:29:35.211Z,13.71
2019-04-10T20:33:06.351Z,13.74
2019-04-10T20:36:37.266Z,13.71
2019-04-10T20:40:09.608Z,13.64
2019-04-10T20:43:39.816Z,13.53
2019-04-10T20:47:10.800Z,13.54
2019-04-10T20:50:41.763Z,13.52
2019-04-10T20:54:12.757Z,13.36
2019-04-10T20:57:43.833Z,13.27
2019-04-10T21:00:20.387Z,13.2
2019-04-10T21:03:50.508Z,13.11
2019-04-10T21:07:21.349Z,12.99
2019-04-10T21:10:51.572Z,12.84
2019-04-10T21:14:21.553Z,12.65
2019-04-10T21:17:52.777Z,12.58
2019-04-10T21:21:22.961Z,12.58
2019-04-10T21:24:54.067Z,12.59
2019-04-10T21:28:25.950Z,12.41
2019-04-10T21:32:05.224Z,12.32
2019-04-10T21:35:35.733Z,12.21
2019-04-10T21:39:07.265Z,12.01
2019-04-10T21:42:37.545Z,12.02
2019-04-10T21:46:08.224Z,11.89
2019-04-10T21:49:38.366Z,11.8
2019-04-10T21:53:08.460Z,11.74
2019-04-10T21:56:38.489Z,11.9
2019-04-10T22:00:10.086Z,12.01
2019-04-10T22:03:41.361Z,11.95
2019-04-10T22:07:34.340Z,11.82
2019-04-10T22:11:04.430Z,11.71
2019-04-10T22:14:34.403Z,11.73
2019-04-10T22:18:05.171Z,11.74
2019-04-10T22:21:35.516Z,11.65
2019-04-10T22:25:05.974Z,11.53
2019-04-10T22:28:37.694Z,11.39
2019-04-10T22:32:08.657Z,11.31
2019-04-10T22:35:39.823Z,11.32
2019-04-10T22:39:13.174Z,11.24
2019-04-10T22:42:46.316Z,11.19
2019-04-10T22:46:19.209Z,11.18
2019-04-10T22:49:49.486Z,11.06
2019-04-10T22:53:19.615Z,10.95
2019-04-10T22:56:49.955Z,10.89
2019-04-10T23:00:24.286Z,10.87
2019-04-10T23:03:55.151Z,10.85
2019-04-10T23:07:26.066Z,10.91
2019-04-10T23:10:57.330Z,10.87
2019-04-10T23:14:27.507Z,10.83
2019-04-10T23:17:57.678Z,10.87
2019-04-10T23:21:28.285Z,10.97
2019-04-10T23:24:58.465Z,11
2019-04-10T23:28:28.621Z,11.06
2019-04-10T23:31:59.641Z,11.12
2019-04-10T23:35:29.650Z,11
2019-04-10T23:38:59.829Z,10.94
2019-04-10T23:42:30.279Z,11.01
2019-04-10T23:46:00.526Z,11
2019-04-10T23:49:30.592Z,11.04
2019-04-10T23:53:00.685Z,11.14
2019-04-10T23:56:31.507Z,11.17
